Marionville, Missouri
Current Conditions -  °F | °C
As of 3:52 PM on Friday 31 Oct 2014 (Local Time) from KSGF Reporting Station
Clear Clear  
Wind Chill: 41°   Ceiling: Unl
Heat Index: 47°   Visibility: 10mi
Dew Point: 19°   Wind: 14mph
Humidity: 33%   Direction: 350°N
Pressure: 30.34"   Gusts: 24mph
Location:  37°N, 93.64°W
Report Text: KSGF 312052Z 35012G21KT 10SM CLR 08/M07 A3034 RMK AO2 SLP277 T00831072 55008
Loading
Personal Weather Stations






























Interactive Weather Map New forecast layout! Learn more

10-Day Weather Forecast

Advertisements
Track Severe Weather on mobile